createdAt,value
2023-01-03T00:01:14.927Z,6.25
2023-01-03T00:04:01.676Z,6.13
2023-01-03T00:06:49.855Z,5.93
2023-01-03T00:09:35.078Z,6.00
2023-01-03T00:12:30.739Z,6.25
2023-01-03T00:15:17.467Z,5.35
2023-01-03T00:18:03.449Z,8.02
2023-01-03T00:20:49.143Z,7.07
2023-01-03T00:23:34.349Z,5.53
2023-01-03T00:26:19.810Z,7.00
2023-01-03T00:29:05.359Z,5.90
2023-01-03T00:31:51.823Z,5.65
2023-01-03T00:34:37.499Z,5.70
2023-01-03T00:37:22.697Z,5.80
2023-01-03T00:40:08.816Z,5.38
2023-01-03T00:43:12.411Z,5.68
2023-01-03T00:45:58.054Z,5.85
2023-01-03T00:48:43.579Z,5.55
2023-01-03T00:51:31.172Z,5.53
2023-01-03T00:54:16.598Z,4.38
2023-01-03T00:57:02.742Z,5.13
2023-01-03T00:59:48.137Z,4.57
2023-01-03T01:02:33.737Z,4.93
2023-01-03T01:05:19.465Z,4.47
2023-01-03T01:08:05.117Z,4.30
2023-01-03T01:11:02.483Z,4.10
2023-01-03T01:13:49.103Z,4.47
2023-01-03T01:16:34.358Z,5.03
2023-01-03T01:19:22.707Z,4.38
2023-01-03T01:22:09.244Z,4.25
2023-01-03T01:24:54.559Z,3.83
2023-01-03T01:27:39.822Z,3.83
2023-01-03T01:30:25.195Z,3.30
2023-01-03T01:33:10.518Z,5.32
2023-01-03T01:35:55.909Z,6.03
2023-01-03T01:38:41.376Z,5.90
2023-01-03T01:41:46.919Z,5.45
2023-01-03T01:44:57.646Z,5.43
2023-01-03T01:47:57.558Z,5.70
2023-01-03T01:50:49.012Z,5.30
2023-01-03T01:53:36.732Z,5.68
2023-01-03T01:56:26.811Z,6.85
2023-01-03T01:59:12.715Z,5.93
2023-01-03T02:01:58.893Z,6.07
2023-01-03T02:04:46.623Z,6.93
2023-01-03T02:07:32.337Z,6.88
2023-01-03T02:10:21.242Z,8.05
2023-01-03T02:13:18.012Z,7.03
2023-01-03T02:16:28.076Z,7.38
2023-01-03T02:19:37.511Z,7.63
2023-01-03T02:22:47.645Z,6.95
2023-01-03T02:25:57.199Z,7.43
2023-01-03T02:29:20.517Z,7.35
2023-01-03T02:32:34.337Z,7.75
2023-01-03T02:35:34.890Z,6.97
2023-01-03T02:39:01.510Z,6.95
2023-01-03T02:42:19.331Z,6.13
2023-01-03T02:45:16.251Z,8.05
2023-01-03T02:48:24.436Z,7.22
2023-01-03T02:51:19.789Z,6.32
2023-01-03T02:54:08.902Z,6.72
2023-01-03T02:57:00.808Z,7.75
2023-01-03T02:59:51.482Z,8.18
2023-01-03T03:02:38.977Z,6.85
2023-01-03T03:05:56.179Z,6.65
2023-01-03T03:08:45.526Z,7.50
2023-01-03T03:11:53.742Z,7.50
2023-01-03T03:14:48.745Z,7.93
2023-01-03T03:17:33.993Z,9.52
2023-01-03T03:20:37.855Z,9.57
2023-01-03T03:23:55.063Z,7.78
2023-01-03T03:26:44.777Z,7.78
2023-01-03T03:29:30.349Z,8.63
2023-01-03T03:32:16.477Z,7.18
2023-01-03T03:35:04.806Z,7.93
2023-01-03T03:37:54.730Z,7.25
2023-01-03T03:41:13.077Z,7.55
2023-01-03T03:44:28.193Z,7.20
2023-01-03T03:47:25.699Z,8.20
2023-01-03T03:50:42.897Z,8.65
2023-01-03T03:53:32.668Z,8.45
2023-01-03T03:56:22.462Z,8.30
2023-01-03T03:59:10.261Z,7.60
2023-01-03T04:01:57.518Z,8.77
2023-01-03T04:04:47.537Z,7.82
2023-01-03T04:07:32.634Z,8.38
2023-01-03T04:10:20.483Z,7.75
2023-01-03T04:13:06.237Z,9.65
2023-01-03T04:15:51.537Z,8.73
2023-01-03T04:18:36.978Z,8.80
2023-01-03T04:21:22.262Z,9.43
2023-01-03T04:24:08.112Z,7.72
2023-01-03T04:26:53.526Z,10.23
2023-01-03T04:29:39.534Z,9.32
2023-01-03T04:32:25.282Z,11.50
2023-01-03T04:35:10.712Z,13.48
2023-01-03T04:37:56.208Z,13.80
2023-01-03T04:40:41.560Z,13.98
2023-01-03T04:43:45.533Z,14.75
2023-01-03T04:46:32.490Z,13.93
2023-01-03T04:49:17.829Z,14.23
2023-01-03T04:52:03.124Z,12.57
2023-01-03T04:54:48.724Z,13.35
2023-01-03T04:57:34.104Z,13.63
2023-01-03T05:00:19.671Z,12.45
2023-01-03T05:03:04.960Z,13.27
2023-01-03T05:05:50.529Z,14.93
2023-01-03T05:08:36.307Z,15.32
2023-01-03T05:11:21.814Z,14.40
2023-01-03T05:14:12.551Z,17.95
2023-01-03T05:16:59.968Z,49.08
2023-01-03T05:20:04.015Z,19.25
2023-01-03T05:23:08.093Z,35.55
2023-01-03T05:25:53.086Z,36.28
2023-01-03T05:28:39.340Z,22.92
2023-01-03T05:31:24.462Z,22.42
2023-01-03T05:34:10.115Z,22.63
2023-01-03T05:36:55.134Z,21.63
2023-01-03T05:39:40.729Z,21.33
2023-01-03T05:42:26.842Z,22.65
2023-01-03T05:45:12.268Z,21.27
2023-01-03T05:47:58.597Z,21.75
2023-01-03T05:50:44.315Z,21.35
2023-01-03T05:53:29.588Z,25.20
2023-01-03T05:56:15.307Z,23.35
2023-01-03T05:59:00.641Z,22.75
2023-01-03T06:01:46.287Z,22.90
2023-01-03T06:04:31.672Z,23.40
2023-01-03T06:07:17.203Z,22.80
2023-01-03T06:10:03.724Z,22.58
2023-01-03T06:12:49.166Z,25.88
2023-01-03T06:15:34.426Z,26.55
2023-01-03T06:18:19.978Z,28.10
2023-01-03T06:21:06.243Z,27.38
2023-01-03T06:23:51.938Z,23.98
2023-01-03T06:26:37.392Z,24.08
2023-01-03T06:29:22.771Z,24.20
2023-01-03T06:32:09.935Z,21.92
2023-01-03T06:34:55.547Z,21.95
2023-01-03T06:37:41.805Z,21.80
2023-01-03T06:40:34.017Z,21.92
2023-01-03T06:43:22.413Z,21.10
2023-01-03T06:46:26.617Z,25.15
2023-01-03T06:49:34.218Z,21.45
2023-01-03T06:52:38.273Z,20.27
2023-01-03T06:55:23.461Z,20.92
2023-01-03T06:58:08.850Z,21.80
2023-01-03T07:00:55.998Z,22.15
2023-01-03T07:03:41.631Z,22.95
2023-01-03T07:06:27.980Z,23.45
2023-01-03T07:09:15.229Z,21.60
2023-01-03T07:12:20.484Z,25.45
2023-01-03T07:15:06.150Z,25.23
2023-01-03T07:17:51.392Z,22.42
2023-01-03T07:20:39.756Z,24.73
2023-01-03T07:23:25.201Z,24.17
2023-01-03T07:26:10.528Z,23.75
2023-01-03T07:28:56.432Z,21.35
2023-01-03T07:31:42.095Z,22.52
2023-01-03T07:34:27.515Z,26.98
2023-01-03T07:37:12.832Z,20.85
2023-01-03T07:39:58.342Z,22.15
2023-01-03T07:43:02.195Z,20.83
2023-01-03T07:45:48.160Z,20.20
2023-01-03T07:48:34.165Z,22.67
2023-01-03T07:51:21.176Z,21.73
2023-01-03T07:54:07.567Z,24.80
2023-01-03T07:56:53.552Z,22.10
2023-01-03T07:59:39.232Z,18.60
2023-01-03T08:02:24.594Z,19.88
2023-01-03T08:05:10.144Z,20.27
2023-01-03T08:07:55.355Z,17.83
2023-01-03T08:10:59.326Z,18.08
2023-01-03T08:13:45.717Z,17.67
2023-01-03T08:16:30.812Z,18.05
2023-01-03T08:19:16.305Z,16.02
2023-01-03T08:22:01.921Z,17.98
2023-01-03T08:24:47.234Z,16.88
2023-01-03T08:27:32.816Z,16.50
2023-01-03T08:30:18.564Z,16.45
2023-01-03T08:33:05.551Z,17.80
2023-01-03T08:36:00.259Z,18.17
2023-01-03T08:38:55.321Z,17.65
2023-01-03T08:41:50.411Z,19.42
2023-01-03T08:44:37.049Z,17.70
2023-01-03T08:47:23.045Z,17.50
2023-01-03T08:50:09.561Z,14.75
2023-01-03T08:52:54.925Z,15.02
2023-01-03T08:55:40.317Z,18.48
2023-01-03T08:58:25.834Z,17.83
2023-01-03T09:01:11.425Z,17.20
2023-01-03T09:03:57.130Z,16.73
2023-01-03T09:06:42.650Z,16.95
2023-01-03T09:09:28.346Z,15.32
2023-01-03T09:12:13.891Z,14.75
2023-01-03T09:14:59.206Z,16.95
2023-01-03T09:17:47.287Z,15.70
2023-01-03T09:20:32.499Z,17.20
2023-01-03T09:23:17.931Z,17.10
2023-01-03T09:26:03.503Z,17.42
2023-01-03T09:28:49.198Z,17.73
2023-01-03T09:31:35.415Z,16.88
2023-01-03T09:34:21.046Z,18.02
2023-01-03T09:37:06.656Z,20.70
2023-01-03T09:39:52.358Z,19.15
2023-01-03T09:42:56.709Z,20.52
2023-01-03T09:45:46.155Z,20.95
2023-01-03T09:48:38.323Z,18.23
2023-01-03T09:51:53.089Z,20.60
2023-01-03T09:54:59.361Z,22.63
2023-01-03T09:58:03.389Z,22.00
2023-01-03T10:01:12.361Z,24.55
2023-01-03T10:04:23.513Z,23.67
2023-01-03T10:07:27.140Z,19.08
2023-01-03T10:10:34.097Z,20.85
2023-01-03T10:13:34.449Z,20.58
2023-01-03T10:16:49.726Z,20.10
2023-01-03T10:19:51.273Z,22.58
2023-01-03T10:22:37.297Z,22.75
2023-01-03T10:25:23.896Z,21.98
2023-01-03T10:28:23.173Z,23.92
2023-01-03T10:31:32.955Z,22.55
2023-01-03T10:34:18.150Z,24.60
2023-01-03T10:37:16.901Z,22.85
2023-01-03T10:40:03.815Z,22.95
2023-01-03T10:42:50.380Z,23.05
2023-01-03T10:46:00.437Z,22.67
2023-01-03T10:52:16.742Z,22.88
2023-01-03T10:55:21.665Z,23.88
2023-01-03T10:58:19.928Z,25.60
2023-01-03T11:01:24.073Z,24.45
2023-01-03T11:04:19.660Z,25.98
2023-01-03T11:07:07.763Z,26.48
2023-01-03T11:09:56.006Z,28.90
2023-01-03T11:12:42.078Z,24.55
2023-01-03T11:15:39.134Z,26.02
2023-01-03T11:18:27.690Z,24.90
2023-01-03T11:21:23.408Z,25.58
2023-01-03T11:24:11.746Z,35.45
2023-01-03T11:27:24.935Z,25.50
2023-01-03T11:33:31.559Z,25.02
2023-01-03T11:36:40.211Z,23.52
2023-01-03T11:39:51.104Z,23.63
2023-01-03T11:42:47.482Z,27.70
2023-01-03T11:45:32.699Z,25.25
2023-01-03T11:48:52.876Z,22.48
2023-01-03T11:51:52.184Z,19.90
2023-01-03T11:55:16.601Z,23.30
2023-01-03T11:58:23.755Z,23.17
2023-01-03T12:01:51.230Z,24.95
2023-01-03T12:05:18.608Z,21.70
2023-01-03T12:08:26.711Z,19.73
2023-01-03T12:11:21.417Z,24.75
2023-01-03T12:14:35.201Z,21.83
2023-01-03T12:17:24.521Z,21.13
2023-01-03T12:20:26.484Z,21.05
2023-01-03T12:23:15.819Z,19.35
2023-01-03T12:26:23.466Z,19.05
2023-01-03T12:29:29.031Z,19.92
2023-01-03T12:32:20.367Z,18.75
2023-01-03T12:35:29.307Z,20.35
2023-01-03T12:38:20.981Z,19.48
2023-01-03T12:41:38.331Z,17.50
2023-01-03T12:44:37.158Z,17.30
2023-01-03T12:47:45.065Z,15.98
2023-01-03T12:50:50.262Z,14.95
2023-01-03T12:53:47.921Z,17.38
2023-01-03T12:56:58.012Z,13.77
2023-01-03T13:00:08.594Z,14.93
2023-01-03T13:03:06.702Z,12.05
2023-01-03T13:06:00.576Z,13.32
2023-01-03T13:08:53.417Z,11.75
2023-01-03T13:11:48.161Z,14.40
2023-01-03T13:14:51.677Z,12.57
2023-01-03T13:17:45.539Z,11.25
2023-01-03T13:20:31.081Z,11.27
2023-01-03T13:23:54.652Z,12.15
2023-01-03T13:27:21.355Z,11.32
2023-01-03T13:30:39.497Z,9.13
2023-01-03T13:33:24.616Z,13.00
2023-01-03T13:36:10.876Z,9.52
2023-01-03T13:38:56.526Z,10.18
2023-01-03T13:41:42.038Z,10.20
2023-01-03T13:44:27.684Z,11.05
2023-01-03T13:47:35.401Z,9.70
2023-01-03T13:50:29.181Z,8.57
2023-01-03T13:53:15.256Z,8.50
2023-01-03T13:56:16.525Z,8.85
2023-01-03T13:59:19.285Z,9.00
2023-01-03T14:05:12.975Z,7.90
2023-01-03T14:08:04.053Z,9.45
2023-01-03T14:11:10.587Z,8.55
2023-01-03T14:14:04.670Z,8.30
2023-01-03T14:16:56.052Z,7.75
2023-01-03T14:19:48.008Z,7.97
2023-01-03T14:22:44.181Z,7.68
2023-01-03T14:25:40.989Z,11.02
2023-01-03T14:28:30.702Z,11.13
2023-01-03T14:31:23.188Z,6.00
2023-01-03T14:37:06.411Z,7.40
2023-01-03T14:39:53.344Z,7.75
2023-01-03T14:42:45.159Z,9.15
2023-01-03T14:45:30.420Z,6.78
2023-01-03T14:48:18.130Z,8.27
2023-01-03T14:51:05.208Z,10.68
2023-01-03T14:53:51.553Z,9.85
2023-01-03T14:56:37.591Z,8.10
2023-01-03T14:59:23.487Z,7.53
2023-01-03T15:02:12.211Z,7.20
2023-01-03T15:04:58.261Z,8.40
2023-01-03T15:07:44.506Z,8.55
2023-01-03T15:10:47.343Z,8.57
2023-01-03T15:16:40.275Z,9.82
2023-01-03T15:19:28.243Z,7.18
2023-01-03T15:22:22.799Z,8.60
2023-01-03T15:25:20.419Z,9.77
2023-01-03T15:28:48.201Z,8.68
2023-01-03T15:31:37.236Z,9.20
2023-01-03T15:34:35.297Z,9.55
2023-01-03T15:37:25.008Z,9.05
2023-01-03T15:40:11.831Z,10.00
2023-01-03T15:43:19.803Z,7.88
2023-01-03T15:46:09.674Z,7.57
2023-01-03T15:48:57.099Z,8.82
2023-01-03T15:51:42.523Z,8.57
2023-01-03T15:54:27.997Z,10.30
2023-01-03T15:57:17.490Z,11.65
2023-01-03T16:00:04.881Z,7.88
2023-01-03T16:02:50.711Z,10.82
2023-01-03T16:05:36.045Z,10.68
2023-01-03T16:08:29.368Z,10.18
2023-01-03T16:11:31.388Z,9.88
2023-01-03T16:14:23.101Z,10.65
2023-01-03T16:17:18.098Z,8.60
2023-01-03T16:20:06.627Z,8.80
2023-01-03T16:23:00.468Z,10.60
2023-01-03T16:25:46.747Z,7.15
2023-01-03T16:28:32.200Z,8.45
2023-01-03T16:31:34.497Z,9.20
2023-01-03T16:34:22.190Z,10.35
2023-01-03T16:37:10.021Z,11.18
2023-01-03T16:39:55.827Z,8.48
2023-01-03T16:42:40.877Z,8.95
2023-01-03T16:45:26.339Z,12.80
2023-01-03T16:48:17.222Z,7.68
2023-01-03T16:51:02.580Z,7.32
2023-01-03T16:53:48.615Z,9.90
2023-01-03T16:56:33.810Z,8.63
2023-01-03T16:59:20.818Z,10.68
2023-01-03T17:02:06.803Z,8.25
2023-01-03T17:04:52.341Z,8.70
2023-01-03T17:07:38.121Z,8.70
2023-01-03T17:10:28.928Z,9.77
2023-01-03T17:13:32.307Z,9.80
2023-01-03T17:16:20.188Z,13.75
2023-01-03T17:19:05.861Z,6.97
2023-01-03T17:21:51.699Z,12.10
2023-01-03T17:24:36.862Z,9.32
2023-01-03T17:27:31.754Z,8.30
2023-01-03T17:30:24.797Z,6.72
2023-01-03T17:33:17.736Z,8.18
2023-01-03T17:36:08.493Z,8.77
2023-01-03T17:38:54.980Z,8.48
2023-01-03T17:41:58.967Z,9.98
2023-01-03T17:45:11.587Z,8.38
2023-01-03T17:48:17.394Z,8.77
2023-01-03T17:51:02.927Z,12.82
2023-01-03T17:53:50.102Z,11.15
2023-01-03T17:56:37.232Z,8.60
2023-01-03T17:59:22.781Z,10.00
2023-01-03T18:02:22.944Z,7.95
2023-01-03T18:05:21.325Z,7.85
2023-01-03T18:08:18.084Z,11.40
2023-01-03T18:11:03.984Z,7.75
2023-01-03T18:13:49.780Z,9.02
2023-01-03T18:16:35.224Z,7.18
2023-01-03T18:19:20.780Z,10.88
2023-01-03T18:22:06.467Z,8.73
2023-01-03T18:24:53.427Z,8.20
2023-01-03T18:27:38.815Z,10.55
2023-01-03T18:30:24.874Z,8.75
2023-01-03T18:33:10.650Z,8.82
2023-01-03T18:35:55.947Z,10.90
2023-01-03T18:38:41.556Z,9.52
2023-01-03T18:41:29.171Z,8.45
2023-01-03T18:44:23.289Z,10.18
2023-01-03T18:47:12.086Z,13.35
2023-01-03T18:49:57.654Z,11.05
2023-01-03T18:52:43.128Z,8.90
2023-01-03T18:55:31.979Z,10.00
2023-01-03T18:58:37.559Z,7.40
2023-01-03T19:01:23.011Z,14.32
2023-01-03T19:04:08.466Z,10.85
2023-01-03T19:06:54.152Z,13.70
2023-01-03T19:09:39.703Z,9.18
2023-01-03T19:12:25.085Z,8.88
2023-01-03T19:15:23.224Z,12.98
2023-01-03T19:18:10.010Z,10.13
2023-01-03T19:20:56.280Z,9.18
2023-01-03T19:23:43.971Z,14.43
2023-01-03T19:26:43.859Z,8.88
2023-01-03T19:29:36.816Z,11.68
2023-01-03T19:32:23.853Z,7.15
2023-01-03T19:35:16.877Z,6.72
2023-01-03T19:38:02.783Z,11.27
2023-01-03T19:40:49.526Z,12.43
2023-01-03T19:43:34.555Z,12.02
2023-01-03T19:46:20.191Z,8.48
2023-01-03T19:49:14.693Z,10.27
2023-01-03T19:51:59.804Z,10.68
2023-01-03T19:54:45.493Z,8.45
2023-01-03T19:57:33.723Z,9.57
2023-01-03T20:00:28.886Z,8.82
2023-01-03T20:03:33.606Z,10.48
2023-01-03T20:06:19.384Z,10.90
2023-01-03T20:09:04.804Z,9.07
2023-01-03T20:11:52.949Z,7.05
2023-01-03T20:14:41.235Z,12.82
2023-01-03T20:17:26.990Z,9.15
2023-01-03T20:20:14.403Z,7.15
2023-01-03T20:23:06.397Z,9.52
2023-01-03T20:25:52.515Z,10.80
2023-01-03T20:28:37.821Z,13.57
2023-01-03T20:31:24.015Z,9.38
2023-01-03T20:34:09.834Z,11.48
2023-01-03T20:36:55.891Z,13.63
2023-01-03T20:39:41.231Z,12.90
2023-01-03T20:42:26.918Z,8.27
2023-01-03T20:45:14.307Z,10.18
2023-01-03T20:48:00.274Z,7.28
2023-01-03T20:50:45.573Z,8.32
2023-01-03T20:53:30.869Z,6.18
2023-01-03T20:56:17.220Z,8.65
2023-01-03T20:59:02.802Z,6.72
2023-01-03T21:01:51.132Z,11.23
2023-01-03T21:04:37.707Z,9.05
2023-01-03T21:07:50.441Z,7.82
2023-01-03T21:13:25.906Z,8.35
2023-01-03T21:16:41.354Z,9.32
2023-01-03T21:19:26.979Z,11.18
2023-01-03T21:22:19.767Z,6.50
2023-01-03T21:25:07.160Z,7.03
2023-01-03T21:27:53.145Z,7.18
2023-01-03T21:30:39.277Z,6.95
2023-01-03T21:33:25.096Z,7.70
2023-01-03T21:36:22.993Z,12.10
2023-01-03T21:39:10.178Z,7.32
2023-01-03T21:42:14.227Z,7.38
2023-01-03T21:44:59.621Z,7.63
2023-01-03T21:47:45.194Z,10.40
2023-01-03T21:50:31.550Z,5.60
2023-01-03T21:53:22.937Z,7.60
2023-01-03T21:56:17.374Z,8.02
2023-01-03T21:59:03.101Z,8.90
2023-01-03T22:02:07.337Z,8.90
2023-01-03T22:04:53.102Z,7.43
2023-01-03T22:07:38.694Z,9.07
2023-01-03T22:10:25.095Z,7.15
2023-01-03T22:13:11.376Z,8.20
2023-01-03T22:15:57.075Z,7.07
2023-01-03T22:18:42.853Z,9.13
2023-01-03T22:21:29.973Z,5.68
2023-01-03T22:24:15.482Z,6.25
2023-01-03T22:27:00.990Z,7.03
2023-01-03T22:29:46.331Z,8.60
2023-01-03T22:32:31.797Z,5.43
2023-01-03T22:35:18.750Z,5.85
2023-01-03T22:38:04.202Z,8.95
2023-01-03T22:40:49.639Z,8.77
2023-01-03T22:43:35.219Z,6.38
2023-01-03T22:46:21.330Z,8.85
2023-01-03T22:49:06.891Z,7.32
2023-01-03T22:51:52.316Z,7.80
2023-01-03T22:54:39.094Z,6.78
2023-01-03T22:57:24.229Z,7.50
2023-01-03T23:00:10.984Z,7.10
2023-01-03T23:02:56.163Z,5.93
2023-01-03T23:05:42.365Z,7.65
2023-01-03T23:08:27.875Z,4.97
2023-01-03T23:11:35.113Z,5.03
2023-01-03T23:14:22.268Z,7.53
2023-01-03T23:17:26.151Z,6.22
2023-01-03T23:20:11.655Z,6.07
2023-01-03T23:23:02.611Z,7.32
2023-01-03T23:25:47.991Z,6.68
2023-01-03T23:28:33.495Z,7.43
2023-01-03T23:31:18.957Z,6.63
2023-01-03T23:34:04.266Z,5.90
2023-01-03T23:36:49.627Z,10.90
2023-01-03T23:39:35.243Z,7.32
2023-01-03T23:42:20.502Z,7.38
2023-01-03T23:45:07.142Z,6.65
2023-01-03T23:47:53.383Z,5.82
2023-01-03T23:50:38.693Z,7.60
2023-01-03T23:53:24.066Z,6.70
2023-01-03T23:56:13.524Z,6.63
2023-01-03T23:58:58.849Z,7.85
